Sweetwater, Nevada
Current Conditions -  °F | °C
As of 10:52 AM on Friday 31 Oct 2014 (Local Time) from KBAN Reporting Station
Clear Clear  
Wind Chill: 57°   Ceiling: Unl
Heat Index: 57°   Visibility: NA
Dew Point: 14°   Wind: 16mph
Humidity: 18%   Direction: 230°SW
Pressure: 29.92"   Gusts: 32mph
Location:  38.7596°N, 119.34°W
Report Text: KBAN 311752Z AUTO 23014G28KT CLR 14/M10 A2992 RMK AO2 PK WND 22028/1749 SLP060 T01391100 10139 20089 58005 $
Loading
Personal Weather Stations






























Interactive Weather Map New forecast layout! Learn more

10-Day Weather Forecast

Advertisements
Track Severe Weather on mobile